Time;durP1;ratioP1;P1;durP2;ratioP2;P2;SDS_P1;SDS_P2;PMS_P1;PMS_P2;Temp;Humidity;BMP_temperature;BMP_pressure;BME280_temperature;BME280_humidity;BME280_pressure;Samples;Min_cycle;Max_cycle;Signal;HPM_P1;HPM_P2
2023/01/01 00:01:44;;;;;;;31.73;21.08;;;13.60;99.90;;;;;;5090538;28;20039;-75
2023/01/01 00:04:12;;;;;;;29.80;19.58;;;13.60;99.90;;;;;;5090054;28;20040;-75
2023/01/01 00:06:37;;;;;;;31.92;19.40;;;13.50;99.90;;;;;;5089554;28;20040;-75
2023/01/01 00:11:48;;;;;;;31.90;23.60;;;13.50;99.90;;;;;;5090705;28;20365;-74
2023/01/01 00:14:13;;;;;;;36.15;22.42;;;13.50;99.90;;;;;;5090533;28;20047;-74
2023/01/01 00:16:39;;;;;;;29.63;22.17;;;13.40;99.90;;;;;;5090140;28;20044;-75
2023/01/01 00:19:05;;;;;;;33.75;22.70;;;13.40;99.90;;;;;;5089959;28;20105;-75
2023/01/01 00:21:30;;;;;;;35.13;23.20;;;13.40;99.90;;;;;;5087958;28;20051;-75
2023/01/01 00:23:56;;;;;;;30.38;23.17;;;13.40;99.90;;;;;;5105261;28;20085;-75
2023/01/01 00:26:22;;;;;;;27.90;22.20;;;13.40;99.90;;;;;;5090369;28;20059;-75
2023/01/01 00:28:47;;;;;;;32.22;21.55;;;13.40;99.90;;;;;;5090356;28;20048;-75
2023/01/01 00:31:18;;;;;;;28.20;20.50;;;13.40;99.90;;;;;;5071761;28;20055;-75
2023/01/01 00:33:49;;;;;;;28.55;19.83;;;13.40;99.90;;;;;;5071815;28;20044;-75
2023/01/01 00:36:15;;;;;;;35.35;22.10;;;13.40;99.90;;;;;;5086808;28;20040;-75
2023/01/01 00:38:43;;;;;;;30.90;20.08;;;13.40;99.90;;;;;;5086304;28;20391;-75
2023/01/01 00:41:09;;;;;;;31.23;18.17;;;13.40;99.90;;;;;;5068279;28;20518;-76
2023/01/01 00:43:35;;;;;;;26.83;18.17;;;13.40;99.90;;;;;;5080082;28;20055;-77
2023/01/01 00:46:03;;;;;;;28.20;20.35;;;13.40;99.90;;;;;;5082066;28;20047;-78
2023/01/01 00:48:28;;;;;;;;;;;13.40;99.90;;;;;;5065625;28;20081;-78
2023/01/01 00:50:54;;;;;;;31.25;22.42;;;13.40;99.90;;;;;;5099190;27;19920;-77
2023/01/01 00:53:21;;;;;;;28.52;20.00;;;13.30;99.90;;;;;;5087800;28;20403;-77
2023/01/01 00:55:48;;;;;;;30.95;23.23;;;13.40;99.90;;;;;;5067915;28;20521;-77
2023/01/01 00:58:15;;;;;;;33.75;26.48;;;13.40;99.90;;;;;;5083989;28;20114;-77
2023/01/01 01:00:41;;;;;;;96.32;61.78;;;13.40;99.90;;;;;;5084886;28;20069;-77
2023/01/01 01:03:09;;;;;;;36.55;23.98;;;13.40;99.90;;;;;;5084111;28;20075;-78
2023/01/01 01:05:37;;;;;;;31.55;20.67;;;13.40;99.90;;;;;;5087870;28;20052;-78
2023/01/01 01:08:03;;;;;;;32.78;23.30;;;13.40;99.90;;;;;;5086253;28;20419;-78
2023/01/01 01:10:29;;;;;;;34.42;23.70;;;13.30;99.90;;;;;;5071450;28;20036;-78
2023/01/01 01:12:54;;;;;;;37.00;27.02;;;13.30;99.90;;;;;;5087816;28;20040;-79
2023/01/01 01:15:20;;;;;;;30.35;25.15;;;13.30;99.90;;;;;;5089020;28;20467;-78
2023/01/01 01:17:47;;;;;;;31.25;24.58;;;13.30;99.90;;;;;;5068620;28;20047;-78
2023/01/01 01:20:12;;;;;;;37.15;26.80;;;13.20;99.90;;;;;;5082447;28;20146;-78
2023/01/01 01:22:39;;;;;;;32.72;27.90;;;13.20;99.90;;;;;;5069721;28;20043;-78
2023/01/01 01:25:05;;;;;;;37.50;28.08;;;13.20;99.90;;;;;;5083158;28;20063;-78
2023/01/01 01:27:31;;;;;;;44.67;36.17;;;13.30;99.90;;;;;;5062848;28;20120;-78
2023/01/01 01:29:57;;;;;;;33.58;25.42;;;13.20;99.90;;;;;;5063585;28;20082;-77
2023/01/01 01:32:23;;;;;;;33.30;23.92;;;13.20;99.90;;;;;;5079571;28;20768;-78
2023/01/01 01:34:48;;;;;;;30.45;24.08;;;13.20;99.90;;;;;;5068885;28;20142;-78
2023/01/01 01:37:14;;;;;;;29.85;23.23;;;13.20;99.90;;;;;;5087157;28;20051;-78
2023/01/01 01:39:40;;;;;;;35.30;24.40;;;13.30;99.90;;;;;;5082868;28;20040;-78
2023/01/01 01:42:06;;;;;;;33.67;24.60;;;13.30;99.90;;;;;;5060010;28;20400;-78
2023/01/01 01:44:52;;;;;;;31.88;24.50;;;13.30;99.90;;;;;;5079833;28;20646;-78
2023/01/01 01:47:23;;;;;;;32.65;23.17;;;13.30;99.90;;;;;;5082023;28;20043;-78
2023/01/01 01:49:55;;;;;;;35.05;27.08;;;13.30;99.90;;;;;;5085925;28;20563;-78
2023/01/01 01:52:21;;;;;;;37.28;29.55;;;13.30;99.90;;;;;;5082980;28;20048;-78
2023/01/01 01:54:47;;;;;;;38.30;29.05;;;13.30;99.90;;;;;;5094530;28;20548;-78
2023/01/01 01:57:13;;;;;;;41.65;28.60;;;13.30;99.90;;;;;;5079567;28;20069;-79
2023/01/01 01:59:46;;;;;;;33.25;27.23;;;13.30;99.90;;;;;;5083724;28;20056;-79
2023/01/01 02:02:27;;;;;;;39.70;27.33;;;13.30;99.90;;;;;;5062303;28;20706;-78
2023/01/01 02:04:53;;;;;;;37.30;30.23;;;13.30;99.90;;;;;;5082350;28;20438;-78
2023/01/01 02:07:21;;;;;;;37.15;28.85;;;13.20;99.90;;;;;;5081719;28;20104;-79
2023/01/01 02:09:47;;;;;;;38.53;29.70;;;13.20;99.90;;;;;;5079584;28;20048;-79
2023/01/01 02:12:13;;;;;;;37.90;30.27;;;13.20;99.90;;;;;;5064124;28;20043;-78
2023/01/01 02:14:38;;;;;;;40.05;30.92;;;13.20;99.90;;;;;;5063385;28;20044;-78
2023/01/01 02:17:14;;;;;;;39.88;33.35;;;13.10;99.90;;;;;;5080035;28;20486;-78
2023/01/01 02:20:11;;;;;;;42.63;33.55;;;13.10;99.90;;;;;;5078061;28;20055;-78
2023/01/01 02:22:55;;;;;;;;;;;13.10;99.90;;;;;;5078016;28;20047;-78
2023/01/01 02:25:50;;;;;;;39.35;33.60;;;13.10;99.90;;;;;;5080032;28;19920;-78
2023/01/01 02:28:41;;;;;;;41.00;34.90;;;13.00;99.90;;;;;;5083572;28;20032;-79
2023/01/01 02:31:10;;;;;;;49.85;36.97;;;13.00;99.90;;;;;;5081154;28;20555;-78
2023/01/01 02:33:36;;;;;;;44.25;36.83;;;12.90;99.90;;;;;;5080106;28;20044;-78
2023/01/01 02:36:04;;;;;;;34.63;26.20;;;12.90;99.90;;;;;;5063526;28;20048;-78
2023/01/01 02:38:31;;;;;;;33.60;26.65;;;12.90;99.90;;;;;;5086931;28;20068;-78
2023/01/01 02:41:04;;;;;;;34.95;23.75;;;12.90;99.90;;;;;;5063444;28;20051;-78
2023/01/01 02:43:30;;;;;;;29.90;22.27;;;12.90;99.90;;;;;;5078776;28;20127;-78
2023/01/01 02:45:56;;;;;;;30.17;18.52;;;12.90;99.90;;;;;;5081491;28;20119;-78
2023/01/01 02:48:40;;;;;;;26.33;15.23;;;12.90;99.90;;;;;;5065235;28;20200;-78
2023/01/01 02:51:12;;;;;;;19.65;11.13;;;12.90;99.90;;;;;;5081870;28;20102;-78
2023/01/01 02:53:42;;;;;;;24.42;10.02;;;12.90;99.90;;;;;;5095969;28;20059;-78
2023/01/01 02:56:31;;;;;;;19.33;8.43;;;13.00;99.90;;;;;;5078755;28;20036;-78
2023/01/01 03:02:20;;;;;;;17.27;7.88;;;13.00;99.90;;;;;;5087799;28;20048;-78
2023/01/01 03:05:07;;;;;;;14.55;6.75;;;13.10;99.90;;;;;;5085861;28;20052;-79
2023/01/01 03:07:56;;;;;;;15.93;6.22;;;13.10;99.90;;;;;;5067264;28;20534;-78
2023/01/01 03:10:48;;;;;;;14.45;6.25;;;13.20;99.90;;;;;;5085897;28;20055;-78
2023/01/01 03:13:38;;;;;;;13.57;6.57;;;13.20;99.90;;;;;;5088338;28;20044;-78
2023/01/01 03:16:12;;;;;;;14.77;6.13;;;13.20;99.90;;;;;;5085001;28;20130;-79
2023/01/01 03:19:11;;;;;;;18.58;6.70;;;13.20;99.90;;;;;;5083780;28;20055;-78
2023/01/01 03:22:04;;;;;;;14.13;5.50;;;13.20;99.90;;;;;;5082726;28;20052;-79
2023/01/01 03:24:41;;;;;;;14.50;5.45;;;13.20;99.90;;;;;;5079607;28;20574;-79
2023/01/01 03:27:13;;;;;;;;;;;13.20;99.90;;;;;;5090226;28;20046;-79
2023/01/01 03:29:41;;;;;;;10.93;4.28;;;13.30;99.90;;;;;;5083215;28;19959;-78
2023/01/01 03:32:13;;;;;;;12.73;4.65;;;13.20;99.90;;;;;;5089840;28;20044;-79
2023/01/01 03:34:43;;;;;;;10.35;4.25;;;13.30;99.90;;;;;;5100088;27;20052;-77
2023/01/01 03:37:15;;;;;;;13.60;4.22;;;13.30;99.90;;;;;;5090251;28;20058;-78
2023/01/01 03:39:46;;;;;;;14.23;4.47;;;13.40;99.90;;;;;;5088512;28;20066;-78
2023/01/01 03:42:33;;;;;;;9.73;3.97;;;13.40;99.90;;;;;;5089583;28;20036;-78
2023/01/01 03:45:30;;;;;;;10.10;3.92;;;13.40;99.90;;;;;;5083400;28;20047;-77
2023/01/01 03:47:56;;;;;;;10.82;3.60;;;13.40;99.90;;;;;;5077497;28;20048;-77
2023/01/01 03:50:33;;;;;;;12.00;4.05;;;13.40;99.90;;;;;;5088463;28;20094;-77
2023/01/01 03:53:06;;;;;;;;;;;13.50;99.90;;;;;;5087963;28;20611;-77
2023/01/01 03:55:40;;;;;;;9.60;3.92;;;13.50;99.90;;;;;;5063966;28;19928;-77
2023/01/01 03:58:17;;;;;;;8.02;3.17;;;13.50;99.90;;;;;;5087256;28;20138;-77
2023/01/01 04:00:54;;;;;;;8.50;3.35;;;13.50;99.90;;;;;;5085089;28;20040;-78
2023/01/01 04:03:26;;;;;;;10.52;3.20;;;13.50;99.90;;;;;;5083776;28;20032;-78
2023/01/01 04:05:52;;;;;;;10.52;3.40;;;13.50;99.90;;;;;;5082942;28;20391;-78
2023/01/01 04:08:18;;;;;;;11.55;3.03;;;13.60;99.90;;;;;;5066903;28;20040;-78
2023/01/01 04:10:52;;;;;;;9.82;3.33;;;13.60;99.90;;;;;;5087918;28;20093;-78
2023/01/01 04:13:17;;;;;;;11.80;3.58;;;13.70;99.90;;;;;;5082583;28;20139;-79
2023/01/01 04:15:43;;;;;;;10.65;3.33;;;13.70;99.90;;;;;;5083067;28;20050;-78
2023/01/01 04:18:09;;;;;;;11.32;3.50;;;13.70;99.90;;;;;;5082240;28;20059;-78
2023/01/01 04:20:34;;;;;;;8.05;3.15;;;13.70;99.90;;;;;;5078659;28;20041;-78
2023/01/01 04:23:02;;;;;;;9.10;3.30;;;13.70;99.90;;;;;;5081765;28;20119;-78
2023/01/01 04:25:29;;;;;;;10.05;3.30;;;13.70;99.90;;;;;;5085420;28;20044;-78
2023/01/01 04:27:54;;;;;;;8.48;3.40;;;13.70;99.90;;;;;;5077655;28;20032;-79
2023/01/01 04:30:20;;;;;;;10.27;2.80;;;13.70;99.90;;;;;;5067549;28;20101;-78
2023/01/01 04:32:46;;;;;;;11.45;3.33;;;13.80;99.90;;;;;;5084587;28;20067;-78
2023/01/01 04:35:13;;;;;;;10.20;2.83;;;13.70;99.90;;;;;;5086903;28;20267;-78
2023/01/01 04:37:41;;;;;;;9.38;3.00;;;13.80;99.90;;;;;;5076168;28;20036;-79
2023/01/01 04:40:08;;;;;;;10.82;3.28;;;13.80;99.90;;;;;;5086105;28;20035;-78
2023/01/01 04:42:34;;;;;;;8.18;3.08;;;13.80;99.90;;;;;;5086046;28;20624;-78
2023/01/01 04:44:59;;;;;;;10.90;2.80;;;13.80;99.90;;;;;;5082265;28;20047;-78
2023/01/01 04:47:25;;;;;;;9.63;3.15;;;13.80;99.90;;;;;;5086178;28;20394;-77
2023/01/01 04:49:52;;;;;;;10.90;3.05;;;13.70;99.90;;;;;;5066860;28;20119;-78
2023/01/01 04:52:18;;;;;;;9.70;2.90;;;13.80;99.90;;;;;;5083513;28;20079;-76
2023/01/01 04:54:43;;;;;;;8.10;2.35;;;13.80;99.90;;;;;;5086814;28;20072;-75
2023/01/01 04:57:09;;;;;;;11.45;3.50;;;13.80;99.90;;;;;;5082299;28;20583;-76
2023/01/01 04:59:35;;;;;;;11.15;2.88;;;13.80;99.90;;;;;;5067156;28;20070;-76
2023/01/01 05:02:00;;;;;;;8.57;2.47;;;13.80;99.90;;;;;;5081564;28;20043;-75
2023/01/01 05:04:26;;;;;;;11.43;2.38;;;13.80;99.90;;;;;;5067728;28;20040;-76
2023/01/01 05:06:52;;;;;;;10.55;2.80;;;13.80;99.90;;;;;;5087154;28;20043;-76
2023/01/01 05:09:18;;;;;;;10.60;2.42;;;13.80;99.90;;;;;;5081895;28;20051;-78
2023/01/01 05:11:43;;;;;;;8.90;2.50;;;13.80;99.90;;;;;;5068846;28;20040;-79
2023/01/01 05:14:09;;;;;;;8.32;2.70;;;13.80;99.90;;;;;;5066372;28;20045;-78
2023/01/01 05:16:37;;;;;;;8.65;2.42;;;13.90;99.90;;;;;;5084740;28;20498;-78
2023/01/01 05:19:04;;;;;;;9.00;2.28;;;13.90;99.90;;;;;;5083231;28;20076;-78
2023/01/01 05:21:32;;;;;;;8.27;2.13;;;13.90;99.90;;;;;;5084648;28;20391;-78
2023/01/01 05:24:00;;;;;;;7.13;2.10;;;13.90;99.90;;;;;;5082733;28;20036;-78
2023/01/01 05:26:29;;;;;;;7.38;2.28;;;13.90;99.90;;;;;;5085884;28;20039;-79
2023/01/01 05:28:56;;;;;;;9.05;1.80;;;13.90;99.90;;;;;;5066698;28;20075;-78
2023/01/01 05:31:24;;;;;;;4.18;1.50;;;13.90;99.90;;;;;;5079515;28;20096;-78
2023/01/01 05:33:53;;;;;;;5.45;1.73;;;13.90;99.90;;;;;;5064858;28;20124;-78
2023/01/01 05:36:31;;;;;;;6.68;1.88;;;13.90;99.90;;;;;;5086221;28;20048;-79
2023/01/01 05:38:57;;;;;;;7.22;2.13;;;13.90;99.90;;;;;;5062276;28;20740;-78
2023/01/01 05:41:23;;;;;;;8.00;1.70;;;13.90;99.90;;;;;;5082268;28;20040;-79
2023/01/01 05:43:51;;;;;;;7.00;1.70;;;13.90;99.90;;;;;;5066636;28;20119;-79
2023/01/01 05:46:19;;;;;;;5.85;1.73;;;13.80;99.90;;;;;;5083936;28;20040;-78
2023/01/01 05:48:45;;;;;;;8.77;1.70;;;13.80;99.90;;;;;;5066665;28;20044;-79
2023/01/01 05:51:16;;;;;;;5.35;1.70;;;13.80;99.90;;;;;;5085481;28;20063;-78
2023/01/01 05:53:43;;;;;;;4.07;1.65;;;13.80;99.90;;;;;;5083976;28;20047;-79
2023/01/01 05:56:10;;;;;;;5.77;1.70;;;13.70;99.90;;;;;;5084208;28;20545;-78
2023/01/01 05:58:36;;;;;;;6.45;1.90;;;13.70;99.90;;;;;;5081225;28;20089;-78
2023/01/01 06:01:17;;;;;;;8.35;2.70;;;13.60;99.90;;;;;;5082730;28;20040;-78
2023/01/01 06:03:44;;;;;;;8.30;2.00;;;13.60;99.90;;;;;;5077510;28;20040;-78
2023/01/01 06:06:12;;;;;;;6.53;2.00;;;13.60;99.90;;;;;;5065790;28;20040;-78
2023/01/01 06:08:38;;;;;;;6.72;1.90;;;13.50;99.90;;;;;;5086297;28;20043;-79
2023/01/01 06:11:05;;;;;;;5.28;1.60;;;13.40;99.90;;;;;;5083632;28;20088;-78
2023/01/01 06:13:32;;;;;;;7.15;2.00;;;13.40;99.90;;;;;;5078783;28;20040;-78
2023/01/01 06:15:59;;;;;;;4.93;1.70;;;13.40;99.90;;;;;;5081991;28;20447;-78
2023/01/01 06:18:28;;;;;;;6.25;1.80;;;13.30;99.90;;;;;;5083303;28;20035;-78
2023/01/01 06:20:54;;;;;;;6.22;1.98;;;13.30;99.90;;;;;;5083166;28;20361;-78
2023/01/01 06:23:19;;;;;;;7.22;1.88;;;13.30;99.90;;;;;;5078788;28;20141;-78
2023/01/01 06:25:45;;;;;;;10.25;2.60;;;13.30;99.90;;;;;;5084868;28;20046;-78
2023/01/01 06:28:11;;;;;;;4.78;1.90;;;13.30;99.90;;;;;;5072277;28;20032;-78
2023/01/01 06:30:37;;;;;;;6.03;1.83;;;13.20;99.90;;;;;;5085366;28;20093;-78
2023/01/01 06:33:03;;;;;;;5.70;2.10;;;13.20;99.90;;;;;;5082786;28;20058;-78
2023/01/01 06:35:29;;;;;;;6.70;2.33;;;13.20;99.90;;;;;;5064716;28;20059;-78
2023/01/01 06:37:57;;;;;;;7.40;2.20;;;13.20;99.90;;;;;;5084597;28;20036;-78
2023/01/01 06:40:23;;;;;;;6.47;2.20;;;13.10;99.90;;;;;;5088428;28;20135;-78
2023/01/01 06:42:48;;;;;;;7.90;1.88;;;13.10;99.90;;;;;;5082016;28;20536;-78
2023/01/01 06:45:14;;;;;;;6.20;2.10;;;13.10;99.90;;;;;;5086897;28;20043;-78
2023/01/01 06:47:39;;;;;;;5.75;2.10;;;13.10;99.90;;;;;;5082944;28;20056;-78
2023/01/01 06:50:06;;;;;;;6.47;2.03;;;13.10;99.90;;;;;;5080466;28;20134;-78
2023/01/01 06:52:31;;;;;;;6.53;2.00;;;13.10;99.90;;;;;;5087037;28;20117;-78
2023/01/01 06:54:57;;;;;;;6.82;2.03;;;13.10;99.90;;;;;;5081545;28;20032;-78
2023/01/01 06:57:23;;;;;;;8.02;2.10;;;13.10;99.90;;;;;;5083610;28;20094;-78
2023/01/01 06:59:49;;;;;;;7.57;2.57;;;13.10;99.90;;;;;;5063096;28;20048;-78
2023/01/01 07:02:15;;;;;;;5.65;1.85;;;13.10;99.90;;;;;;5083215;28;20032;-78
2023/01/01 07:04:40;;;;;;;5.93;2.35;;;13.00;99.90;;;;;;5079759;28;20033;-78
2023/01/01 07:07:06;;;;;;;9.60;2.50;;;13.10;99.90;;;;;;5064882;28;20042;-78
2023/01/01 07:09:31;;;;;;;7.95;2.22;;;13.00;99.90;;;;;;5083032;28;20075;-78
2023/01/01 07:11:57;;;;;;;6.88;1.98;;;13.00;99.90;;;;;;5081362;28;20036;-78
2023/01/01 07:14:23;;;;;;;7.70;2.33;;;13.00;99.90;;;;;;5080138;28;20036;-78
2023/01/01 07:16:48;;;;;;;5.03;1.73;;;13.00;99.90;;;;;;5086420;28;20089;-78
2023/01/01 07:19:14;;;;;;;7.53;1.92;;;13.00;99.90;;;;;;5079836;28;20096;-78
2023/01/01 07:21:52;;;;;;;6.07;1.85;;;13.00;99.90;;;;;;5065549;28;20052;-78
2023/01/01 07:24:18;;;;;;;6.65;1.58;;;13.00;99.90;;;;;;5078345;28;20513;-78
2023/01/01 07:26:44;;;;;;;5.97;1.63;;;13.00;99.90;;;;;;5081299;28;20048;-78
2023/01/01 07:29:11;;;;;;;6.63;2.10;;;13.00;99.90;;;;;;5082714;28;20032;-78
2023/01/01 07:31:39;;;;;;;6.65;2.00;;;13.00;99.90;;;;;;5084025;28;20048;-78
2023/01/01 07:34:07;;;;;;;8.23;1.98;;;13.00;99.90;;;;;;5080836;28;20062;-78
2023/01/01 07:36:32;;;;;;;;;;;13.00;99.90;;;;;;5066166;28;20372;-77
2023/01/01 07:38:58;;;;;;;7.30;2.08;;;13.00;99.90;;;;;;5078897;28;19920;-77
2023/01/01 07:41:24;;;;;;;9.35;1.92;;;12.90;99.90;;;;;;5065725;28;20044;-77
2023/01/01 07:43:49;;;;;;;6.15;2.05;;;12.90;99.90;;;;;;5082151;28;20108;-77
2023/01/01 07:46:17;;;;;;;6.22;1.50;;;12.90;99.90;;;;;;5084575;28;20069;-77
2023/01/01 07:48:43;;;;;;;6.45;1.67;;;12.90;99.90;;;;;;5060889;28;20495;-77
2023/01/01 07:51:09;;;;;;;8.30;1.60;;;12.90;99.90;;;;;;5090291;28;20040;-77
2023/01/01 07:53:34;;;;;;;6.45;1.50;;;12.90;99.90;;;;;;5085486;28;20426;-76
2023/01/01 07:56:00;;;;;;;7.55;1.52;;;12.90;99.90;;;;;;5068691;28;20054;-76
2023/01/01 07:58:26;;;;;;;6.38;1.63;;;12.90;99.90;;;;;;5084909;28;20173;-76
2023/01/01 08:00:52;;;;;;;5.05;1.63;;;13.00;99.90;;;;;;5086239;28;20061;-77
2023/01/01 08:03:17;;;;;;;8.20;1.55;;;12.90;99.90;;;;;;5069004;28;20040;-76
2023/01/01 08:05:43;;;;;;;7.05;1.65;;;13.00;99.90;;;;;;5086485;28;20048;-77
2023/01/01 08:08:10;;;;;;;6.50;1.60;;;13.00;99.90;;;;;;5086979;28;20035;-77
2023/01/01 08:10:36;;;;;;;5.95;1.67;;;13.00;99.90;;;;;;5081322;28;20397;-79
2023/01/01 08:13:04;;;;;;;5.97;1.63;;;12.90;99.90;;;;;;5084188;28;20042;-79
2023/01/01 08:15:29;;;;;;;6.55;1.80;;;12.90;99.90;;;;;;5085291;28;20785;-79
2023/01/01 08:17:59;;;;;;;6.57;1.45;;;12.90;99.90;;;;;;5083522;28;20032;-79
2023/01/01 08:20:26;;;;;;;9.02;1.60;;;12.90;99.90;;;;;;5072331;28;20043;-79
2023/01/01 08:22:52;;;;;;;8.23;1.80;;;12.80;99.90;;;;;;5086188;28;20035;-76
2023/01/01 08:25:18;;;;;;;7.03;1.83;;;12.80;99.90;;;;;;5069747;28;20430;-77
2023/01/01 08:27:44;;;;;;;7.93;2.08;;;12.80;99.90;;;;;;5088103;28;20495;-75
2023/01/01 08:30:11;;;;;;;7.45;1.63;;;12.80;99.90;;;;;;5088435;28;20093;-76
2023/01/01 08:32:37;;;;;;;10.98;1.73;;;12.80;99.90;;;;;;5066093;28;20093;-73
2023/01/01 08:35:03;;;;;;;7.70;1.60;;;12.80;99.90;;;;;;5082640;28;20491;-81
2023/01/01 08:37:28;;;;;;;7.43;1.90;;;12.70;99.90;;;;;;5082936;28;20028;-74
2023/01/01 08:39:54;;;;;;;9.35;2.00;;;12.70;99.90;;;;;;5080494;28;20047;-71
2023/01/01 08:42:20;;;;;;;7.43;1.70;;;12.70;99.90;;;;;;5079289;28;20044;-80
2023/01/01 08:44:45;;;;;;;6.47;1.50;;;12.70;99.90;;;;;;5062205;28;20533;-79
2023/01/01 08:47:29;;;;;;;9.27;2.17;;;12.70;99.90;;;;;;5069403;28;20070;-77
2023/01/01 08:49:55;;;;;;;9.68;1.85;;;12.70;99.90;;;;;;5089606;28;20121;-77
2023/01/01 08:52:21;;;;;;;6.65;1.42;;;12.70;99.90;;;;;;5082877;28;20052;-77
2023/01/01 08:54:46;;;;;;;11.75;1.65;;;12.70;99.90;;;;;;5088583;28;20048;-77
2023/01/01 08:57:12;;;;;;;6.90;1.52;;;12.70;99.90;;;;;;5083128;28;20039;-79
2023/01/01 08:59:38;;;;;;;6.68;1.60;;;12.70;99.90;;;;;;5083763;28;20545;-79
2023/01/01 09:02:05;;;;;;;10.98;1.63;;;12.60;99.90;;;;;;5086375;28;20052;-79
2023/01/01 09:04:30;;;;;;;7.00;1.63;;;12.60;99.90;;;;;;5080302;28;20043;-78
2023/01/01 09:06:56;;;;;;;7.82;1.50;;;12.60;99.90;;;;;;5087272;28;20044;-81
2023/01/01 09:09:22;;;;;;;7.72;1.70;;;12.60;99.90;;;;;;5083184;28;20036;-74
2023/01/01 09:11:57;;;;;;;5.70;1.65;;;12.60;99.90;;;;;;5083472;28;20040;-75
2023/01/01 09:14:23;;;;;;;9.98;1.77;;;12.60;99.90;;;;;;5078223;28;20036;-75
2023/01/01 09:16:49;;;;;;;5.82;1.58;;;12.60;99.90;;;;;;5063828;28;20117;-74
2023/01/01 09:19:15;;;;;;;8.48;1.95;;;12.60;99.90;;;;;;5088459;28;20453;-74
2023/01/01 09:21:41;;;;;;;7.85;1.65;;;12.50;99.90;;;;;;5089141;28;20047;-75
2023/01/01 09:24:07;;;;;;;8.82;1.65;;;12.50;99.90;;;;;;5102651;28;20040;-74
2023/01/01 09:26:33;;;;;;;9.48;2.00;;;12.50;99.90;;;;;;5068099;28;20044;-74
2023/01/01 09:28:58;;;;;;;7.28;1.70;;;12.50;99.90;;;;;;5069650;28;20056;-74
2023/01/01 09:31:24;;;;;;;8.85;1.90;;;12.50;99.90;;;;;;5088122;28;20048;-75
2023/01/01 09:33:50;;;;;;;8.75;2.00;;;12.50;99.90;;;;;;5085581;28;20051;-76
2023/01/01 09:36:29;;;;;;;7.05;1.85;;;12.50;99.90;;;;;;5068193;28;20059;-76
2023/01/01 09:38:56;;;;;;;10.07;2.10;;;12.50;99.90;;;;;;5068249;28;20044;-75
2023/01/01 09:41:54;;;;;;;8.52;2.30;;;12.40;99.90;;;;;;5088121;28;20448;-75
2023/01/01 09:44:44;;;;;;;10.20;1.60;;;12.50;99.90;;;;;;5067391;28;20135;-75
2023/01/01 09:47:25;;;;;;;9.80;1.88;;;12.50;99.90;;;;;;5087949;28;20051;-75
2023/01/01 09:49:53;;;;;;;11.70;2.33;;;12.50;99.90;;;;;;5088050;28;20044;-74
2023/01/01 09:52:26;;;;;;;8.43;1.92;;;12.50;99.90;;;;;;5086466;28;20052;-75
2023/01/01 09:54:58;;;;;;;8.25;1.90;;;12.60;99.90;;;;;;5065154;28;20479;-75
2023/01/01 09:57:31;;;;;;;9.63;1.80;;;12.60;99.90;;;;;;5085191;28;20044;-74
2023/01/01 09:59:58;;;;;;;9.38;1.92;;;12.60;99.90;;;;;;5087859;28;20048;-75
2023/01/01 10:02:43;;;;;;;8.18;1.75;;;12.60;99.90;;;;;;5062313;28;20372;-74
2023/01/01 10:05:30;;;;;;;9.30;2.03;;;12.60;99.90;;;;;;5098247;28;20127;-73
2023/01/01 10:08:27;;;;;;;8.48;2.22;;;12.60;99.90;;;;;;5075758;28;20035;-74
2023/01/01 10:11:35;;;;;;;7.82;2.20;;;12.60;99.90;;;;;;5086444;28;20086;-75
2023/01/01 10:14:11;;;;;;;9.43;2.35;;;12.60;99.90;;;;;;5066205;28;20969;-74
2023/01/01 10:16:43;;;;;;;7.78;1.60;;;12.60;99.90;;;;;;5080035;28;20097;-73
2023/01/01 10:19:33;;;;;;;7.45;1.70;;;12.70;99.90;;;;;;5065774;28;20051;-81
2023/01/01 10:22:08;;;;;;;9.15;2.03;;;12.70;99.90;;;;;;5085771;28;20089;-85
2023/01/01 10:24:47;;;;;;;6.35;1.80;;;12.60;99.90;;;;;;5085169;28;20046;-84
2023/01/01 10:27:25;;;;;;;8.20;1.83;;;12.70;99.90;;;;;;5085033;28;20666;-83
2023/01/01 10:29:51;;;;;;;7.38;1.77;;;12.70;99.90;;;;;;5085464;28;20131;-85
2023/01/01 10:32:31;;;;;;;9.23;2.20;;;12.60;99.90;;;;;;5083440;28;20131;-75
2023/01/01 10:34:58;;;;;;;7.28;2.05;;;12.60;99.90;;;;;;5064422;28;20087;-81
2023/01/01 10:37:29;;;;;;;9.73;2.05;;;12.60;99.90;;;;;;5084358;28;20044;-82
2023/01/01 10:39:54;;;;;;;9.38;1.88;;;12.60;99.90;;;;;;5067803;28;20044;-82
2023/01/01 10:42:20;;;;;;;12.27;1.88;;;12.60;99.90;;;;;;5087562;28;20048;-80
2023/01/01 10:44:46;;;;;;;7.55;1.58;;;12.60;99.90;;;;;;5085136;28;20044;-81
2023/01/01 10:47:38;;;;;;;8.55;1.95;;;12.60;99.90;;;;;;5084485;28;20411;-81
2023/01/01 10:50:06;;;;;;;9.40;2.03;;;12.70;99.90;;;;;;5070656;28;20048;-81
2023/01/01 10:52:39;;;;;;;8.32;1.70;;;12.60;99.90;;;;;;5081682;28;20511;-84
2023/01/01 10:55:26;;;;;;;9.65;2.20;;;12.60;99.90;;;;;;5079008;28;20624;-80
2023/01/01 10:57:53;;;;;;;10.60;1.85;;;12.60;99.90;;;;;;5083309;28;20032;-80
2023/01/01 11:00:24;;;;;;;11.55;2.40;;;12.60;99.90;;;;;;5090146;28;20122;-83
2023/01/01 11:03:14;;;;;;;9.43;1.90;;;12.60;99.90;;;;;;5058866;28;20047;-81
2023/01/01 11:05:59;;;;;;;9.65;1.98;;;12.60;99.90;;;;;;5086321;28;20058;-83
2023/01/01 11:08:26;;;;;;;7.90;1.92;;;12.60;99.90;;;;;;5079577;28;20078;-84
2023/01/01 11:10:52;;;;;;;;;;;12.50;99.90;;;;;;5088385;28;20097;-84
2023/01/01 11:13:20;;;;;;;11.73;2.22;;;12.50;99.90;;;;;;5080912;28;20015;-84
2023/01/01 11:15:46;;;;;;;7.00;1.67;;;12.50;99.90;;;;;;5083102;28;20488;-79
2023/01/01 11:18:26;;;;;;;9.75;2.15;;;12.50;99.90;;;;;;5084122;28;20089;-79
2023/01/01 11:20:54;;;;;;;11.45;2.45;;;12.60;99.90;;;;;;5079096;28;20387;-83
2023/01/01 11:23:38;;;;;;;15.20;2.58;;;12.60;99.90;;;;;;5083131;28;20062;-74
2023/01/01 11:26:18;;;;;;;10.82;2.60;;;12.70;99.90;;;;;;5087240;28;20127;-82
2023/01/01 11:29:02;;;;;;;9.25;3.03;;;12.60;99.90;;;;;;5087474;28;20063;-87
2023/01/01 11:31:35;;;;;;;12.98;2.90;;;12.80;99.90;;;;;;5097164;28;20075;-83
2023/01/01 11:34:03;;;;;;;10.30;1.98;;;12.80;99.90;;;;;;5081480;28;20055;-84
2023/01/01 11:36:31;;;;;;;10.85;2.65;;;12.80;99.90;;;;;;5071003;28;20078;-82
2023/01/01 11:39:25;;;;;;;10.63;2.60;;;12.80;99.90;;;;;;5084088;28;20089;-80
2023/01/01 11:41:54;;;;;;;11.85;2.42;;;12.80;99.90;;;;;;5089704;28;20123;-83
2023/01/01 11:44:42;;;;;;;11.02;2.00;;;12.80;99.90;;;;;;5088544;28;20036;-88
2023/01/01 11:47:28;;;;;;;13.48;2.75;;;12.80;99.90;;;;;;5086362;28;20068;-82
2023/01/01 11:50:16;;;;;;;13.63;2.17;;;12.80;99.90;;;;;;5088208;28;20471;-85
2023/01/01 11:52:47;;;;;;;8.65;1.95;;;12.80;99.90;;;;;;5083564;28;20186;-79
2023/01/01 11:55:32;;;;;;;10.65;2.22;;;12.80;99.90;;;;;;5079146;28;20051;-79
2023/01/01 11:58:24;;;;;;;13.32;2.35;;;12.80;99.90;;;;;;5064258;28;20159;-79
2023/01/01 12:00:54;;;;;;;8.32;1.80;;;12.80;99.90;;;;;;5070083;28;20040;-81
2023/01/01 12:03:48;;;;;;;13.88;2.25;;;12.80;99.90;;;;;;5087274;28;20052;-78
2023/01/01 12:06:35;;;;;;;13.73;2.45;;;12.80;99.90;;;;;;5064735;28;20050;-77
2023/01/01 12:09:13;;;;;;;8.32;1.98;;;12.80;99.90;;;;;;5087590;28;20096;-83
2023/01/01 12:11:53;;;;;;;9.25;2.10;;;12.80;99.90;;;;;;5079655;28;20422;-78
2023/01/01 12:14:34;;;;;;;11.55;2.40;;;12.70;99.90;;;;;;5083948;28;20048;-90
2023/01/01 12:17:11;;;;;;;10.00;2.55;;;12.70;99.90;;;;;;5069578;28;20158;-80
2023/01/01 12:19:46;;;;;;;10.40;2.53;;;12.80;99.90;;;;;;5087981;28;20048;-82
2023/01/01 12:22:18;;;;;;;16.55;2.88;;;12.80;99.90;;;;;;5063559;28;20052;-84
2023/01/01 12:24:46;;;;;;;10.75;2.47;;;12.80;99.90;;;;;;5082955;28;20479;-80
2023/01/01 12:27:35;;;;;;;10.30;2.17;;;12.80;99.90;;;;;;5060597;28;20054;-83
2023/01/01 12:30:40;;;;;;;11.60;2.50;;;12.80;99.90;;;;;;5069802;28;20052;-87
2023/01/01 12:33:18;;;;;;;12.50;2.88;;;12.80;99.90;;;;;;5035135;28;20059;-78
2023/01/01 12:36:22;;;;;;;13.77;2.55;;;12.80;99.90;;;;;;5087982;28;20126;-81
2023/01/01 12:38:48;;;;;;;10.85;2.53;;;12.80;99.90;;;;;;5063852;28;20056;-79
2023/01/01 12:41:42;;;;;;;12.05;2.55;;;12.80;99.90;;;;;;5067910;28;20048;-81
2023/01/01 12:44:19;;;;;;;13.00;2.70;;;12.80;99.90;;;;;;5103623;28;20044;-80
2023/01/01 12:47:31;;;;;;;12.43;2.58;;;12.80;99.90;;;;;;5086286;28;20039;-81
2023/01/01 12:50:06;;;;;;;10.20;2.40;;;12.70;99.90;;;;;;5083265;28;20035;-83
2023/01/01 12:52:53;;;;;;;9.68;2.50;;;12.70;99.90;;;;;;5093763;27;20109;-83
2023/01/01 12:55:25;;;;;;;11.23;2.83;;;12.70;99.90;;;;;;5066305;28;20058;-80
2023/01/01 12:58:04;;;;;;;12.35;2.92;;;12.70;99.90;;;;;;5068989;28;20045;-88
2023/01/01 13:00:31;;;;;;;12.55;2.70;;;12.70;99.90;;;;;;5065736;28;20048;-83
2023/01/01 13:03:03;;;;;;;14.25;3.15;;;12.70;99.90;;;;;;5062709;28;20048;-79
2023/01/01 13:05:39;;;;;;;12.38;3.45;;;12.70;99.90;;;;;;5063490;28;20044;-77
2023/01/01 13:08:06;;;;;;;13.88;3.25;;;12.70;99.90;;;;;;5063764;28;20044;-86